createdAt,value
2022-12-14T00:00:38.367Z,98.24
2022-12-14T00:01:38.296Z,98.20
2022-12-14T00:02:38.466Z,98.24
2022-12-14T00:03:38.333Z,98.09
2022-12-14T00:04:38.286Z,98.09
2022-12-14T00:05:38.266Z,97.56
2022-12-14T00:06:38.255Z,98.30
2022-12-14T00:07:38.236Z,98.09
2022-12-14T00:08:41.649Z,98.20
2022-12-14T00:09:38.216Z,98.30
2022-12-14T00:10:38.223Z,98.30
2022-12-14T00:11:38.197Z,98.41
2022-12-14T00:12:38.597Z,98.52
2022-12-14T00:13:38.173Z,97.81
2022-12-14T00:14:38.197Z,97.92
2022-12-14T00:15:38.190Z,97.56
2022-12-14T00:16:38.158Z,97.92
2022-12-14T00:17:38.135Z,97.61
2022-12-14T00:18:38.118Z,97.81
2022-12-14T00:19:38.141Z,97.61
2022-12-14T00:20:38.111Z,97.61
2022-12-14T00:21:38.100Z,98.03
2022-12-14T00:22:38.081Z,97.33
2022-12-14T00:23:39.260Z,97.22
2022-12-14T00:24:38.071Z,97.65
2022-12-14T00:25:38.078Z,97.33
2022-12-14T00:26:38.042Z,97.39
2022-12-14T00:27:38.031Z,98.03
2022-12-14T00:28:38.028Z,97.81
2022-12-14T00:29:38.032Z,98.67
2022-12-14T00:30:38.035Z,98.35
2022-12-14T00:31:38.128Z,98.03
2022-12-14T00:32:37.988Z,98.35
2022-12-14T00:33:37.971Z,97.71
2022-12-14T00:34:37.980Z,97.71
2022-12-14T00:35:37.975Z,97.61
2022-12-14T00:36:37.951Z,97.54
2022-12-14T00:37:37.953Z,98.03
2022-12-14T00:38:37.927Z,98.07
2022-12-14T00:39:37.927Z,98.03
2022-12-14T00:40:37.910Z,97.75
2022-12-14T00:41:37.905Z,97.71
2022-12-14T00:42:37.893Z,97.61
2022-12-14T00:43:37.922Z,97.61
2022-12-14T00:44:37.868Z,97.71
2022-12-14T00:45:37.862Z,97.29
2022-12-14T00:46:37.916Z,97.92
2022-12-14T00:47:40.829Z,97.39
2022-12-14T00:48:37.838Z,97.71
2022-12-14T00:49:37.843Z,97.29
2022-12-14T00:50:37.811Z,97.50
2022-12-14T00:51:37.810Z,97.39
2022-12-14T00:52:37.796Z,97.12
2022-12-14T00:53:37.794Z,97.29
2022-12-14T00:54:37.763Z,97.29
2022-12-14T00:55:37.771Z,97.39
2022-12-14T00:56:37.792Z,97.29
2022-12-14T00:57:37.740Z,97.33
2022-12-14T00:58:37.726Z,97.44
2022-12-14T00:59:37.719Z,97.44
2022-12-14T01:00:37.729Z,97.44
2022-12-14T01:01:37.799Z,97.61
2022-12-14T01:02:37.745Z,97.39
2022-12-14T01:03:37.724Z,97.61
2022-12-14T01:04:37.667Z,97.77
2022-12-14T01:05:37.657Z,97.99
2022-12-14T01:06:37.669Z,97.61
2022-12-14T01:07:37.651Z,97.81
2022-12-14T01:08:37.649Z,97.71
2022-12-14T01:09:37.626Z,97.81
2022-12-14T01:10:37.619Z,97.61
2022-12-14T01:11:37.608Z,97.81
2022-12-14T01:12:37.609Z,97.81
2022-12-14T01:13:37.580Z,98.56
2022-12-14T01:14:37.628Z,98.14
2022-12-14T01:15:37.627Z,98.14
2022-12-14T01:16:37.571Z,98.14
2022-12-14T01:17:37.551Z,98.24
2022-12-14T01:18:37.546Z,98.52
2022-12-14T01:19:37.538Z,98.35
2022-12-14T01:20:37.515Z,98.14
2022-12-14T01:21:37.505Z,98.24
2022-12-14T01:22:37.512Z,98.14
2022-12-14T01:23:37.494Z,98.24
2022-12-14T01:24:37.482Z,98.35
2022-12-14T01:25:37.464Z,98.35
2022-12-14T01:26:37.467Z,98.67
2022-12-14T01:27:37.447Z,98.35
2022-12-14T01:28:37.464Z,98.24
2022-12-14T01:29:37.430Z,97.99
2022-12-14T01:30:37.423Z,98.20
2022-12-14T01:31:37.455Z,98.41
2022-12-14T01:32:37.403Z,98.30
2022-12-14T01:33:37.417Z,98.09
2022-12-14T01:34:37.394Z,98.30
2022-12-14T01:35:37.372Z,98.46
2022-12-14T01:36:37.352Z,98.14
2022-12-14T01:37:37.348Z,98.35
2022-12-14T01:38:37.350Z,97.92
2022-12-14T01:39:37.332Z,97.71
2022-12-14T01:40:37.316Z,97.92
2022-12-14T01:41:37.321Z,97.61
2022-12-14T01:42:37.302Z,97.92
2022-12-14T01:43:37.298Z,97.71
2022-12-14T01:44:37.279Z,97.75
2022-12-14T01:45:37.267Z,97.75
2022-12-14T01:46:37.333Z,97.86
2022-12-14T01:47:37.248Z,97.92
2022-12-14T01:48:37.243Z,97.75
2022-12-14T01:49:37.236Z,97.65
2022-12-14T01:50:37.245Z,98.60
2022-12-14T01:51:37.210Z,98.39
2022-12-14T01:52:37.228Z,97.71
2022-12-14T01:53:37.203Z,98.88
2022-12-14T01:54:37.175Z,99.19
2022-12-14T01:55:37.187Z,99.19
2022-12-14T01:56:37.152Z,99.41
2022-12-14T01:57:37.182Z,99.30
2022-12-14T01:58:37.147Z,99.41
2022-12-14T01:59:37.145Z,99.41
2022-12-14T02:00:37.118Z,98.99
2022-12-14T02:01:37.239Z,99.52
2022-12-14T02:02:37.216Z,99.19
2022-12-14T02:03:37.158Z,99.19
2022-12-14T02:04:37.088Z,99.37
2022-12-14T02:05:37.067Z,99.19
2022-12-14T02:06:37.075Z,99.37
2022-12-14T02:07:37.066Z,99.47
2022-12-14T02:08:37.042Z,99.47
2022-12-14T02:09:37.028Z,99.37
2022-12-14T02:10:37.021Z,99.47
2022-12-14T02:11:37.012Z,99.30
2022-12-14T02:12:37.012Z,99.52
2022-12-14T02:13:36.988Z,99.47
2022-12-14T02:14:36.999Z,99.37
2022-12-14T02:15:44.676Z,98.99
2022-12-14T02:16:37.033Z,99.41
2022-12-14T02:17:36.953Z,99.19
2022-12-14T02:18:36.975Z,99.41
2022-12-14T02:19:36.942Z,99.58
2022-12-14T02:20:36.929Z,99.41
2022-12-14T02:21:36.925Z,99.58
2022-12-14T02:22:36.921Z,98.62
2022-12-14T02:23:36.905Z,98.62
2022-12-14T02:24:36.897Z,98.35
2022-12-14T02:25:36.877Z,98.14
2022-12-14T02:26:36.861Z,98.24
2022-12-14T02:27:36.863Z,98.24
2022-12-14T02:28:36.843Z,98.35
2022-12-14T02:29:36.877Z,98.39
2022-12-14T02:30:36.847Z,97.97
2022-12-14T02:31:36.910Z,97.92
2022-12-14T02:32:36.810Z,98.18
2022-12-14T02:33:36.800Z,98.28
2022-12-14T02:34:36.784Z,98.39
2022-12-14T02:35:36.798Z,98.28
2022-12-14T02:36:36.777Z,98.28
2022-12-14T02:37:36.758Z,98.50
2022-12-14T02:38:36.771Z,98.28
2022-12-14T02:39:36.730Z,98.07
2022-12-14T02:40:36.731Z,98.39
2022-12-14T02:41:36.748Z,98.03
2022-12-14T02:42:36.726Z,98.50
2022-12-14T02:43:36.700Z,98.39
2022-12-14T02:44:36.691Z,98.18
2022-12-14T02:45:36.678Z,98.71
2022-12-14T02:46:36.735Z,98.82
2022-12-14T02:47:36.686Z,98.99
2022-12-14T02:48:36.642Z,99.24
2022-12-14T02:49:36.652Z,99.24
2022-12-14T02:50:36.625Z,99.13
2022-12-14T02:51:36.619Z,99.66
2022-12-14T02:52:36.608Z,98.93
2022-12-14T02:53:36.627Z,98.93
2022-12-14T02:54:36.611Z,99.35
2022-12-14T02:55:36.586Z,99.35
2022-12-14T02:56:36.567Z,99.46
2022-12-14T02:57:36.564Z,99.13
2022-12-14T02:58:36.582Z,99.03
2022-12-14T02:59:36.540Z,99.35
2022-12-14T03:00:36.595Z,99.29
2022-12-14T03:01:36.831Z,99.50
2022-12-14T03:02:36.627Z,99.29
2022-12-14T03:03:36.518Z,98.54
2022-12-14T03:04:36.487Z,99.18
2022-12-14T03:05:36.482Z,99.18
2022-12-14T03:06:36.469Z,98.86
2022-12-14T03:07:36.464Z,99.39
2022-12-14T03:08:36.465Z,98.82
2022-12-14T03:09:36.443Z,99.18
2022-12-14T03:10:36.455Z,99.24
2022-12-14T03:11:36.415Z,98.82
2022-12-14T03:12:36.419Z,99.13
2022-12-14T03:13:36.422Z,98.82
2022-12-14T03:14:36.402Z,98.71
2022-12-14T03:15:36.377Z,98.60
2022-12-14T03:16:36.446Z,98.50
2022-12-14T03:17:36.362Z,98.39
2022-12-14T03:18:36.358Z,98.50
2022-12-14T03:19:36.357Z,98.28
2022-12-14T03:20:36.327Z,98.22
2022-12-14T03:21:36.319Z,98.33
2022-12-14T03:22:36.328Z,98.33
2022-12-14T03:23:36.308Z,98.28
2022-12-14T03:24:36.309Z,98.54
2022-12-14T03:25:36.284Z,98.54
2022-12-14T03:26:36.300Z,98.54
2022-12-14T03:27:36.268Z,98.75
2022-12-14T03:28:36.267Z,99.33
2022-12-14T03:29:36.255Z,98.97
2022-12-14T03:30:58.841Z,99.18
2022-12-14T03:31:37.230Z,99.33
2022-12-14T03:32:36.227Z,99.39
2022-12-14T03:33:36.211Z,99.71
2022-12-14T03:34:36.207Z,99.92
2022-12-14T03:35:36.193Z,99.39
2022-12-14T03:36:36.193Z,99.60
2022-12-14T03:37:36.166Z,99.39
2022-12-14T03:38:36.165Z,99.60
2022-12-14T03:39:36.138Z,99.71
2022-12-14T03:40:36.151Z,99.54
2022-12-14T03:41:36.142Z,99.50
2022-12-14T03:42:36.148Z,99.29
2022-12-14T03:43:36.112Z,99.12
2022-12-14T03:44:40.319Z,99.39
2022-12-14T03:45:37.164Z,99.39
2022-12-14T03:46:36.086Z,99.54
2022-12-14T03:47:36.077Z,99.50
2022-12-14T03:48:36.066Z,99.39
2022-12-14T03:49:36.050Z,99.29
2022-12-14T03:50:36.037Z,99.39
2022-12-14T03:51:36.030Z,99.39
2022-12-14T03:52:36.046Z,99.71
2022-12-14T03:53:36.003Z,99.60
2022-12-14T03:54:43.562Z,99.39
2022-12-14T03:55:36.012Z,99.39
2022-12-14T03:56:35.972Z,99.60
2022-12-14T03:57:35.980Z,99.60
2022-12-14T03:58:35.992Z,99.71
2022-12-14T03:59:35.944Z,99.29
2022-12-14T04:00:36.109Z,99.18
2022-12-14T04:01:36.062Z,98.86
2022-12-14T04:02:40.737Z,99.50
2022-12-14T04:03:36.918Z,99.60
2022-12-14T04:04:35.903Z,99.46
2022-12-14T04:05:35.920Z,99.50
2022-12-14T04:06:35.882Z,99.66
2022-12-14T04:07:35.877Z,99.29
2022-12-14T04:08:35.872Z,98.97
2022-12-14T04:09:35.865Z,99.18
2022-12-14T04:10:35.859Z,99.29
2022-12-14T04:11:35.850Z,98.97
2022-12-14T04:12:35.827Z,98.86
2022-12-14T04:13:35.813Z,99.29
2022-12-14T04:14:35.820Z,99.29
2022-12-14T04:15:35.793Z,99.07
2022-12-14T04:16:35.837Z,99.07
2022-12-14T04:17:35.785Z,99.29
2022-12-14T04:18:35.759Z,98.86
2022-12-14T04:19:35.776Z,99.18
2022-12-14T04:20:35.746Z,98.75
2022-12-14T04:21:35.732Z,99.18
2022-12-14T04:22:35.735Z,99.82
2022-12-14T04:23:35.738Z,99.92
2022-12-14T04:24:35.705Z,99.50
2022-12-14T04:25:35.713Z,99.71
2022-12-14T04:26:35.682Z,99.50
2022-12-14T04:27:35.668Z,99.50
2022-12-14T04:28:35.662Z,99.50
2022-12-14T04:29:35.657Z,99.71
2022-12-14T04:30:35.686Z,99.71
2022-12-14T04:31:35.730Z,99.71
2022-12-14T04:32:35.734Z,99.18
2022-12-14T04:33:35.607Z,99.29
2022-12-14T04:34:35.611Z,98.86
2022-12-14T04:35:35.623Z,98.86
2022-12-14T04:36:35.599Z,99.18
2022-12-14T04:37:35.574Z,99.50
2022-12-14T04:38:35.568Z,99.29
2022-12-14T04:39:35.550Z,99.29
2022-12-14T04:40:35.548Z,99.07
2022-12-14T04:41:35.577Z,99.07
2022-12-14T04:42:35.531Z,98.75
2022-12-14T04:43:35.534Z,99.18
2022-12-14T04:44:35.510Z,99.07
2022-12-14T04:45:35.575Z,99.39
2022-12-14T04:46:40.312Z,99.33
2022-12-14T04:47:36.485Z,99.39
2022-12-14T04:48:35.496Z,99.33
2022-12-14T04:49:35.452Z,98.65
2022-12-14T04:50:35.451Z,98.75
2022-12-14T04:51:35.438Z,99.18
2022-12-14T04:52:35.445Z,99.54
2022-12-14T04:53:35.415Z,99.44
2022-12-14T04:54:35.416Z,99.39
2022-12-14T04:55:35.403Z,99.07
2022-12-14T04:56:35.390Z,99.18
2022-12-14T04:57:35.378Z,99.54
2022-12-14T04:58:35.382Z,99.50
2022-12-14T04:59:35.352Z,99.44
2022-12-14T05:00:35.341Z,99.18
2022-12-14T05:01:35.562Z,99.07
2022-12-14T05:02:35.481Z,99.07
2022-12-14T05:03:35.330Z,99.50
2022-12-14T05:04:35.328Z,99.44
2022-12-14T05:05:35.305Z,99.60
2022-12-14T05:06:35.295Z,99.82
2022-12-14T05:07:35.286Z,99.71
2022-12-14T05:08:35.268Z,99.71
2022-12-14T05:09:35.282Z,99.54
2022-12-14T05:10:35.257Z,99.44
2022-12-14T05:11:53.743Z,99.22
2022-12-14T05:12:36.227Z,99.29
2022-12-14T05:13:35.241Z,99.50
2022-12-14T05:14:35.224Z,99.60
2022-12-14T05:15:35.211Z,99.54
2022-12-14T05:16:35.273Z,99.18
2022-12-14T05:17:35.184Z,99.60
2022-12-14T05:18:35.192Z,99.50
2022-12-14T05:19:35.236Z,99.33
2022-12-14T05:20:35.165Z,99.60
2022-12-14T05:21:35.160Z,99.71
2022-12-14T05:22:35.138Z,99.71
2022-12-14T05:23:35.120Z,99.39
2022-12-14T05:24:35.116Z,99.71
2022-12-14T05:25:35.122Z,99.76
2022-12-14T05:26:35.108Z,99.60
2022-12-14T05:27:35.100Z,99.82
2022-12-14T05:28:35.070Z,99.50
2022-12-14T05:29:35.077Z,99.54
2022-12-14T05:30:35.103Z,99.33
2022-12-14T05:31:35.045Z,99.97
2022-12-14T05:32:35.056Z,99.97
2022-12-14T05:33:43.587Z,99.29
2022-12-14T05:34:35.025Z,99.65
2022-12-14T05:35:35.030Z,99.60
2022-12-14T05:36:35.027Z,99.82
2022-12-14T05:37:34.978Z,99.71
2022-12-14T05:38:34.975Z,99.82
2022-12-14T05:39:34.978Z,99.71
2022-12-14T05:40:34.956Z,99.92
2022-12-14T05:41:34.961Z,99.39
2022-12-14T05:42:38.248Z,99.65
2022-12-14T05:43:35.927Z,99.50
2022-12-14T05:44:34.950Z,99.29
2022-12-14T05:45:34.912Z,99.44
2022-12-14T05:46:34.914Z,99.50
2022-12-14T05:47:34.899Z,99.50
2022-12-14T05:48:34.869Z,99.50
2022-12-14T05:49:34.883Z,99.29
2022-12-14T05:50:34.874Z,99.07
2022-12-14T05:51:34.842Z,99.50
2022-12-14T05:52:34.841Z,99.39
2022-12-14T05:53:34.846Z,99.29
2022-12-14T05:54:34.827Z,99.65
2022-12-14T05:55:34.802Z,99.65
2022-12-14T05:56:34.808Z,99.50
2022-12-14T05:57:38.034Z,99.39
2022-12-14T05:58:39.127Z,99.76
2022-12-14T06:00:35.773Z,98.97
2022-12-14T06:01:34.829Z,99.54
2022-12-14T06:02:34.796Z,99.76
2022-12-14T06:03:34.748Z,98.75
2022-12-14T06:04:34.788Z,99.60
2022-12-14T06:05:34.729Z,99.82
2022-12-14T06:06:34.703Z,99.07
2022-12-14T06:07:34.696Z,99.22
2022-12-14T06:08:34.687Z,99.44
2022-12-14T06:09:34.688Z,99.33
2022-12-14T06:10:34.658Z,99.22
2022-12-14T06:11:34.677Z,99.22
2022-12-14T06:12:34.643Z,99.22
2022-12-14T06:13:34.715Z,98.91
2022-12-14T06:14:34.716Z,99.22
2022-12-14T06:15:34.754Z,99.22
2022-12-14T06:16:34.603Z,99.12
2022-12-14T06:17:34.607Z,98.91
2022-12-14T06:18:34.589Z,99.22
2022-12-14T06:19:34.587Z,99.22
2022-12-14T06:20:34.575Z,99.22
2022-12-14T06:21:34.576Z,99.22
2022-12-14T06:22:34.554Z,99.38
2022-12-14T06:23:34.541Z,99.80
2022-12-14T06:24:34.531Z,98.85
2022-12-14T06:25:34.539Z,99.69
2022-12-14T06:26:34.515Z,99.58
2022-12-14T06:27:34.505Z,99.12
2022-12-14T06:28:34.485Z,99.54
2022-12-14T06:29:34.493Z,99.12
2022-12-14T06:30:34.468Z,99.22
2022-12-14T06:31:34.521Z,99.44
2022-12-14T06:32:34.441Z,99.48
2022-12-14T06:33:34.438Z,99.33
2022-12-14T06:34:39.018Z,99.54
2022-12-14T06:35:35.412Z,99.76
2022-12-14T06:36:34.421Z,99.54
2022-12-14T06:37:34.421Z,99.58
2022-12-14T06:38:34.384Z,99.58
2022-12-14T06:39:34.381Z,99.65
2022-12-14T06:40:34.381Z,99.33
2022-12-14T06:41:34.353Z,99.80
2022-12-14T06:42:34.387Z,99.44
2022-12-14T06:43:34.339Z,99.16
2022-12-14T06:44:34.336Z,98.91
2022-12-14T06:45:34.339Z,98.91
2022-12-14T06:46:34.403Z,99.22
2022-12-14T06:47:34.293Z,98.69
2022-12-14T06:48:34.319Z,99.44
2022-12-14T06:49:34.280Z,99.22
2022-12-14T06:50:34.265Z,99.65
2022-12-14T06:51:34.258Z,98.91
2022-12-14T06:52:34.266Z,99.44
2022-12-14T06:53:34.257Z,99.01
2022-12-14T06:54:34.255Z,98.91
2022-12-14T06:55:34.225Z,98.38
2022-12-14T06:56:34.218Z,98.63
2022-12-14T06:57:34.200Z,98.85
2022-12-14T06:58:34.226Z,98.80
2022-12-14T06:59:34.203Z,99.01
2022-12-14T07:00:34.170Z,99.05
2022-12-14T07:01:34.222Z,98.63
2022-12-14T07:02:34.412Z,98.32
2022-12-14T07:03:34.222Z,98.52
2022-12-14T07:04:34.183Z,98.42
2022-12-14T07:05:34.123Z,98.52
2022-12-14T07:06:34.124Z,98.95
2022-12-14T07:07:34.107Z,98.32
2022-12-14T07:08:34.099Z,98.52
2022-12-14T07:09:34.118Z,98.85
2022-12-14T07:10:34.116Z,98.91
2022-12-14T07:11:34.089Z,98.95
2022-12-14T07:12:41.605Z,98.69
2022-12-14T07:13:34.045Z,98.27
2022-12-14T07:14:34.034Z,98.59
2022-12-14T07:15:34.085Z,98.74
2022-12-14T07:16:34.021Z,98.74
2022-12-14T07:17:34.009Z,98.48
2022-12-14T07:18:34.022Z,98.63
2022-12-14T07:19:33.989Z,98.42
2022-12-14T07:20:33.965Z,98.74
2022-12-14T07:21:34.018Z,98.52
2022-12-14T07:22:33.971Z,98.42
2022-12-14T07:23:34.502Z,98.42
2022-12-14T07:24:33.957Z,98.52
2022-12-14T07:25:33.996Z,98.42
2022-12-14T07:26:33.913Z,98.85
2022-12-14T07:27:33.906Z,98.85
2022-12-14T07:28:33.912Z,98.74
2022-12-14T07:29:35.020Z,98.85
2022-12-14T07:30:33.876Z,98.63
2022-12-14T07:31:33.918Z,99.16
2022-12-14T07:32:33.858Z,98.95
2022-12-14T07:33:33.839Z,99.33
2022-12-14T07:34:33.830Z,99.22
2022-12-14T07:35:33.846Z,98.69
2022-12-14T07:36:33.835Z,98.42
2022-12-14T07:37:33.804Z,98.42
2022-12-14T07:38:33.799Z,98.32
2022-12-14T07:39:33.788Z,97.99
2022-12-14T07:40:33.772Z,97.78
2022-12-14T07:41:33.799Z,98.42
2022-12-14T07:42:33.791Z,98.42
2022-12-14T07:43:33.744Z,98.63
2022-12-14T07:44:33.747Z,98.63
2022-12-14T07:45:33.724Z,98.48
2022-12-14T07:46:33.917Z,98.63
2022-12-14T07:47:33.706Z,98.42
2022-12-14T07:48:33.729Z,98.32
2022-12-14T07:49:33.689Z,98.38
2022-12-14T07:50:33.680Z,98.59
2022-12-14T07:51:33.669Z,98.80
2022-12-14T07:52:37.401Z,98.80
2022-12-14T07:53:33.653Z,98.59
2022-12-14T07:54:33.656Z,98.91
2022-12-14T07:55:33.634Z,98.80
2022-12-14T07:56:33.643Z,99.07
2022-12-14T07:57:33.648Z,98.86
2022-12-14T07:58:33.601Z,99.18
2022-12-14T07:59:33.592Z,98.86
2022-12-14T08:00:33.629Z,98.91
2022-12-14T08:01:33.667Z,98.91
2022-12-14T08:02:33.683Z,98.65
2022-12-14T08:03:33.559Z,99.18
2022-12-14T08:04:33.618Z,99.50
2022-12-14T08:05:33.543Z,98.75
2022-12-14T08:06:33.521Z,98.86
2022-12-14T08:07:33.511Z,98.75
2022-12-14T08:08:33.496Z,98.93
2022-12-14T08:09:33.487Z,98.71
2022-12-14T08:10:40.000Z,98.54
2022-12-14T08:11:34.466Z,98.28
2022-12-14T08:12:33.457Z,98.50
2022-12-14T08:13:33.477Z,97.75
2022-12-14T08:14:33.447Z,98.14
2022-12-14T08:15:33.434Z,98.14
2022-12-14T08:16:33.547Z,98.03
2022-12-14T08:17:33.415Z,98.24
2022-12-14T08:18:33.401Z,98.46
2022-12-14T08:19:33.396Z,98.35
2022-12-14T08:20:33.379Z,98.30
2022-12-14T08:21:33.382Z,98.20
2022-12-14T08:22:33.379Z,97.99
2022-12-14T08:23:33.993Z,97.88
2022-12-14T08:24:33.340Z,97.99
2022-12-14T08:25:33.338Z,97.56
2022-12-14T08:26:35.782Z,97.63
2022-12-14T08:27:33.317Z,97.67
2022-12-14T08:28:33.337Z,97.73
2022-12-14T08:29:33.317Z,97.77
2022-12-14T08:30:33.276Z,97.63
2022-12-14T08:31:33.369Z,98.26
2022-12-14T08:32:34.626Z,98.47
2022-12-14T08:33:33.345Z,97.73
2022-12-14T08:34:33.237Z,98.05
2022-12-14T08:35:33.248Z,97.83
2022-12-14T08:36:33.236Z,97.79
2022-12-14T08:37:33.233Z,98.00
2022-12-14T08:38:33.198Z,97.79
2022-12-14T08:39:33.190Z,97.58
2022-12-14T08:40:33.177Z,97.69
2022-12-14T08:41:33.181Z,97.58
2022-12-14T08:42:33.178Z,97.47
2022-12-14T08:43:33.700Z,97.47
2022-12-14T08:44:33.151Z,97.69
2022-12-14T08:45:33.147Z,97.69
2022-12-14T08:46:33.238Z,97.79
2022-12-14T08:47:33.123Z,97.47
2022-12-14T08:48:33.131Z,97.37
2022-12-14T08:49:33.096Z,97.58
2022-12-14T08:50:33.093Z,97.47
2022-12-14T08:51:33.076Z,97.69
2022-12-14T08:52:33.061Z,97.69
2022-12-14T08:53:33.486Z,97.64
2022-12-14T08:54:33.048Z,97.64
2022-12-14T08:55:38.311Z,97.22
2022-12-14T08:56:34.018Z,97.53
2022-12-14T08:57:33.013Z,97.22
2022-12-14T08:58:33.007Z,97.11
2022-12-14T09:00:00.258Z,97.64
2022-12-14T09:00:34.068Z,97.64
2022-12-14T09:01:34.676Z,97.64
2022-12-14T09:02:33.157Z,97.33
2022-12-14T09:03:33.466Z,97.33
2022-12-14T09:04:32.948Z,97.53
2022-12-14T09:05:32.932Z,97.53
2022-12-14T09:06:32.923Z,97.11
2022-12-14T09:07:32.922Z,97.43
2022-12-14T09:08:32.907Z,97.43
2022-12-14T09:09:32.923Z,97.60
2022-12-14T09:10:32.884Z,97.75
2022-12-14T09:11:32.871Z,97.64
2022-12-14T09:12:32.870Z,97.17
2022-12-14T09:13:33.413Z,97.17
2022-12-14T09:14:32.837Z,97.81
2022-12-14T09:15:32.849Z,97.11
2022-12-14T09:16:32.914Z,97.01
2022-12-14T09:17:32.811Z,97.07
2022-12-14T09:18:33.454Z,97.11
2022-12-14T09:19:32.802Z,97.71
2022-12-14T09:20:32.792Z,97.49
2022-12-14T09:21:32.828Z,97.43
2022-12-14T09:22:32.765Z,97.71
2022-12-14T09:23:33.290Z,97.49
2022-12-14T09:24:32.748Z,97.71
2022-12-14T09:25:32.738Z,97.39
2022-12-14T09:26:32.722Z,97.60
2022-12-14T09:27:32.705Z,97.49
2022-12-14T09:28:32.707Z,97.66
2022-12-14T09:29:32.693Z,97.66
2022-12-14T09:30:32.695Z,97.45
2022-12-14T09:31:32.728Z,97.41
2022-12-14T09:32:32.675Z,97.51
2022-12-14T09:33:33.068Z,97.41
2022-12-14T09:34:32.634Z,97.25
2022-12-14T09:35:32.633Z,97.47
2022-12-14T09:36:32.646Z,97.36
2022-12-14T09:37:32.621Z,97.25
2022-12-14T09:38:32.600Z,96.94
2022-12-14T09:39:32.591Z,97.15
2022-12-14T09:40:32.579Z,97.25
2022-12-14T09:41:32.585Z,97.09
2022-12-14T09:42:32.605Z,96.62
2022-12-14T09:43:37.157Z,96.77
2022-12-14T09:44:33.539Z,96.73
2022-12-14T09:45:32.673Z,97.25
2022-12-14T09:46:32.521Z,96.98
2022-12-14T09:47:32.522Z,97.05
2022-12-14T09:48:32.854Z,96.94
2022-12-14T09:49:32.497Z,97.05
2022-12-14T09:50:32.480Z,97.19
2022-12-14T09:51:32.541Z,97.67
2022-12-14T09:52:32.456Z,97.57
2022-12-14T09:53:32.792Z,97.57
2022-12-14T09:54:32.458Z,97.67
2022-12-14T09:55:32.431Z,97.05
2022-12-14T09:56:32.431Z,97.05
2022-12-14T09:57:32.420Z,97.11
2022-12-14T09:58:32.806Z,96.89
2022-12-14T09:59:32.385Z,96.89
2022-12-14T10:00:32.393Z,96.68
2022-12-14T10:01:32.537Z,96.58
2022-12-14T10:02:33.215Z,96.26
2022-12-14T10:03:32.961Z,96.43
2022-12-14T10:04:32.382Z,96.75
2022-12-14T10:05:32.332Z,96.43
2022-12-14T10:06:32.350Z,96.53
2022-12-14T10:07:34.836Z,96.11
2022-12-14T10:08:32.974Z,96.22
2022-12-14T10:09:32.314Z,96.53
2022-12-14T10:10:32.281Z,96.59
2022-12-14T10:11:32.281Z,96.49
2022-12-14T10:12:34.426Z,96.28
2022-12-14T10:13:32.618Z,96.13
2022-12-14T10:14:32.268Z,96.34
2022-12-14T10:15:32.236Z,96.34
2022-12-14T10:16:32.300Z,95.92
2022-12-14T10:17:32.282Z,95.60
2022-12-14T10:18:58.105Z,95.77
2022-12-14T10:19:33.195Z,95.87
2022-12-14T10:20:32.215Z,95.56
2022-12-14T10:21:32.167Z,95.24
2022-12-14T10:22:32.166Z,95.77
2022-12-14T10:23:32.149Z,95.94
2022-12-14T10:24:32.148Z,95.31
2022-12-14T10:25:32.146Z,95.73
2022-12-14T10:26:32.122Z,95.41
2022-12-14T10:27:53.885Z,95.51
2022-12-14T10:28:33.413Z,95.20
2022-12-14T10:29:32.087Z,94.99
2022-12-14T10:30:32.085Z,95.51
2022-12-14T10:31:32.144Z,95.31
2022-12-14T10:32:32.057Z,95.41
2022-12-14T10:33:32.052Z,95.09
2022-12-14T10:34:32.048Z,95.31
2022-12-14T10:35:32.034Z,95.09
2022-12-14T10:36:32.014Z,95.62
2022-12-14T10:37:32.030Z,95.20
2022-12-14T10:38:32.658Z,95.31
2022-12-14T10:39:31.998Z,95.31
2022-12-14T10:40:34.591Z,95.41
2022-12-14T10:41:31.970Z,95.37
2022-12-14T10:42:31.955Z,95.20
2022-12-14T10:43:31.968Z,95.62
2022-12-14T10:44:31.939Z,94.84
2022-12-14T10:45:40.340Z,95.26
2022-12-14T10:46:33.018Z,95.05
2022-12-14T10:47:31.941Z,95.47
2022-12-14T10:48:32.305Z,95.15
2022-12-14T10:49:31.893Z,95.11
2022-12-14T10:50:31.885Z,95.43
2022-12-14T10:51:31.874Z,95.01
2022-12-14T10:52:31.857Z,95.43
2022-12-14T10:53:37.109Z,95.53
2022-12-14T10:54:32.846Z,95.22
2022-12-14T10:55:31.843Z,94.38
2022-12-14T10:56:31.894Z,94.80
2022-12-14T10:57:31.803Z,95.01
2022-12-14T10:58:32.148Z,94.69
2022-12-14T10:59:38.938Z,94.76
2022-12-14T11:00:32.779Z,94.59
2022-12-14T11:01:31.944Z,94.65
2022-12-14T11:02:31.958Z,94.02
2022-12-14T11:03:31.827Z,94.44
2022-12-14T11:04:31.732Z,94.54
2022-12-14T11:05:36.424Z,94.54
2022-12-14T11:06:32.719Z,94.44
2022-12-14T11:07:31.728Z,94.34
2022-12-14T11:08:32.019Z,94.29
2022-12-14T11:09:31.693Z,94.60
2022-12-14T11:10:31.671Z,94.08
2022-12-14T11:11:31.725Z,94.29
2022-12-14T11:12:31.671Z,94.35
2022-12-14T11:13:31.665Z,94.35
2022-12-14T11:14:31.633Z,93.72
2022-12-14T11:15:31.628Z,93.83
2022-12-14T11:16:36.044Z,94.60
2022-12-14T11:17:32.837Z,94.60
2022-12-14T11:18:32.361Z,94.29
2022-12-14T11:19:31.603Z,94.56
2022-12-14T11:20:31.588Z,94.46
2022-12-14T11:21:31.566Z,94.46
2022-12-14T11:22:31.554Z,94.92
2022-12-14T11:23:31.550Z,94.98
2022-12-14T11:24:31.537Z,94.67
2022-12-14T11:25:31.546Z,94.88
2022-12-14T11:26:31.510Z,94.56
2022-12-14T11:27:31.511Z,94.67
2022-12-14T11:28:37.098Z,94.46
2022-12-14T11:29:32.485Z,94.67
2022-12-14T11:30:31.541Z,94.18
2022-12-14T11:31:31.477Z,94.71
2022-12-14T11:32:31.454Z,94.67
2022-12-14T11:33:31.441Z,93.98
2022-12-14T11:34:31.439Z,94.71
2022-12-14T11:35:31.424Z,93.98
2022-12-14T11:36:31.418Z,94.29
2022-12-14T11:37:31.431Z,94.18
2022-12-14T11:38:31.793Z,94.29
2022-12-14T11:39:31.386Z,94.60
2022-12-14T11:40:31.371Z,94.82
2022-12-14T11:41:31.366Z,94.82
2022-12-14T11:42:31.359Z,94.82
2022-12-14T11:43:31.352Z,94.71
2022-12-14T11:44:31.329Z,94.04
2022-12-14T11:45:31.320Z,93.83
2022-12-14T11:46:31.351Z,94.04
2022-12-14T11:47:31.336Z,94.56
2022-12-14T11:48:31.761Z,94.46
2022-12-14T11:49:31.289Z,94.67
2022-12-14T11:50:31.281Z,94.14
2022-12-14T11:51:31.257Z,94.88
2022-12-14T11:52:31.247Z,94.78
2022-12-14T11:53:31.252Z,94.78
2022-12-14T11:54:31.231Z,94.67
2022-12-14T11:55:31.238Z,94.67
2022-12-14T11:56:31.214Z,94.67
2022-12-14T11:57:31.208Z,94.56
2022-12-14T11:58:31.669Z,94.88
2022-12-14T11:59:31.188Z,94.62
2022-12-14T12:00:31.165Z,94.35
2022-12-14T12:01:31.184Z,94.25
2022-12-14T12:02:31.208Z,94.35
2022-12-14T12:03:31.221Z,94.46
2022-12-14T12:04:31.139Z,94.46
2022-12-14T12:05:31.127Z,93.72
2022-12-14T12:06:31.115Z,93.83
2022-12-14T12:07:31.129Z,94.14
2022-12-14T12:08:31.463Z,94.04
2022-12-14T12:09:31.091Z,93.93
2022-12-14T12:10:31.075Z,93.83
2022-12-14T12:11:31.062Z,94.35
2022-12-14T12:12:31.065Z,94.60
2022-12-14T12:13:31.058Z,94.56
2022-12-14T12:14:31.038Z,94.67
2022-12-14T12:15:31.048Z,94.14
2022-12-14T12:16:31.089Z,94.04
2022-12-14T12:17:31.002Z,94.14
2022-12-14T12:18:31.358Z,94.35
2022-12-14T12:19:30.995Z,94.78
2022-12-14T12:20:30.989Z,94.35
2022-12-14T12:21:30.959Z,94.56
2022-12-14T12:22:30.952Z,94.67
2022-12-14T12:23:31.455Z,94.60
2022-12-14T12:24:30.983Z,94.67
2022-12-14T12:25:36.696Z,94.78
2022-12-14T12:26:31.929Z,94.60
2022-12-14T12:27:30.903Z,94.60
2022-12-14T12:28:31.482Z,95.03
2022-12-14T12:29:30.885Z,94.82
2022-12-14T12:30:30.862Z,94.60
2022-12-14T12:31:30.927Z,95.34
2022-12-14T12:32:30.859Z,94.86
2022-12-14T12:33:30.834Z,94.92
2022-12-14T12:34:30.835Z,95.49
2022-12-14T12:35:30.820Z,95.49
2022-12-14T12:36:30.809Z,95.28
2022-12-14T12:37:30.801Z,95.18
2022-12-14T12:38:31.256Z,95.18
2022-12-14T12:39:30.792Z,94.96
2022-12-14T12:40:30.772Z,94.96
2022-12-14T12:41:30.753Z,95.28
2022-12-14T12:42:30.752Z,95.11
2022-12-14T12:43:30.734Z,95.43
2022-12-14T12:44:30.745Z,95.22
2022-12-14T12:45:30.732Z,95.18
2022-12-14T12:46:30.795Z,95.18
2022-12-14T12:47:44.456Z,95.18
2022-12-14T12:48:32.044Z,95.28
2022-12-14T12:49:30.680Z,95.45
2022-12-14T12:50:30.681Z,95.24
2022-12-14T12:51:30.652Z,95.24
2022-12-14T12:52:30.655Z,95.13
2022-12-14T12:57:02.443Z,95.09